createdAt,value
2022-12-28T00:01:37.572Z,96184.19
2022-12-28T00:04:09.809Z,96180.94
2022-12-28T00:06:39.647Z,96175.53
2022-12-28T00:09:14.885Z,96181.38
2022-12-28T00:11:45.277Z,96180.38
2022-12-28T00:14:17.249Z,96185.88
2022-12-28T00:16:48.038Z,96178.56
2022-12-28T00:19:19.698Z,96174.63
2022-12-28T00:21:51.208Z,96172.34
2022-12-28T00:24:26.121Z,96170.81
2022-12-28T00:26:57.004Z,96169.31
2022-12-28T00:29:27.718Z,96172.34
2022-12-28T00:31:57.958Z,96167.22
2022-12-28T00:34:27.880Z,96163.97
2022-12-28T00:37:10.587Z,96154.44
2022-12-28T00:39:46.264Z,96151.34
2022-12-28T00:42:18.252Z,96153.63
2022-12-28T00:44:48.020Z,96151.44
2022-12-28T00:47:19.582Z,96150.16
2022-12-28T00:49:50.272Z,96154.81
2022-12-28T00:52:20.385Z,96166.06
2022-12-28T00:54:53.113Z,96162.22
2022-12-28T00:57:23.215Z,96163.63
2022-12-28T00:59:54.088Z,96158.06
2022-12-28T01:02:24.011Z,96158.22
2022-12-28T01:04:55.911Z,96153.72
2022-12-28T01:07:26.954Z,96154.09
2022-12-28T01:10:02.383Z,96151.66
2022-12-28T01:12:37.902Z,96156.59
2022-12-28T01:15:12.415Z,96165.59
2022-12-28T01:17:43.956Z,96167.91
2022-12-28T01:20:14.905Z,96166.94
2022-12-28T01:22:44.757Z,96169.78
2022-12-28T01:25:18.202Z,96166.38
2022-12-28T01:27:48.436Z,96171.78
2022-12-28T01:30:19.989Z,96170.25
2022-12-28T01:32:49.943Z,96170.56
2022-12-28T01:35:19.903Z,96162.16
2022-12-28T01:37:49.672Z,96162.00
2022-12-28T01:40:22.327Z,96151.28
2022-12-28T01:42:52.247Z,96147.22
2022-12-28T01:45:24.901Z,96149.81
2022-12-28T01:47:59.083Z,96138.41
2022-12-28T01:50:32.341Z,96138.69
2022-12-28T01:53:08.170Z,96125.59
2022-12-28T01:55:44.599Z,96120.81
2022-12-28T01:58:20.356Z,96114.22
2022-12-28T02:00:50.333Z,96112.19
2022-12-28T02:03:25.855Z,96114.44
2022-12-28T02:06:00.327Z,96103.47
2022-12-28T02:08:38.735Z,96109.09
2022-12-28T02:11:18.535Z,96102.16
2022-12-28T02:13:51.697Z,96096.97
2022-12-28T02:16:21.874Z,96092.63
2022-12-28T02:18:53.827Z,96098.69
2022-12-28T02:21:41.426Z,96098.56
2022-12-28T02:24:40.782Z,96086.28
2022-12-28T02:27:28.407Z,96080.69
2022-12-28T02:30:10.726Z,96076.97
2022-12-28T02:32:54.121Z,96084.78
2022-12-28T02:35:36.191Z,96072.91
2022-12-28T02:38:14.562Z,96080.09
2022-12-28T02:40:51.667Z,96071.69
2022-12-28T02:43:22.265Z,96075.25
2022-12-28T02:46:09.683Z,96075.09
2022-12-28T02:48:56.452Z,96067.66
2022-12-28T02:51:47.935Z,96066.75
2022-12-28T02:54:52.550Z,96061.56
2022-12-28T02:57:42.408Z,96054.34
2022-12-28T03:00:19.195Z,96042.88
2022-12-28T03:03:24.301Z,96039.25
2022-12-28T03:06:19.776Z,96033.22
2022-12-28T03:09:03.020Z,96023.53
2022-12-28T03:11:43.025Z,96015.91
2022-12-28T03:14:23.371Z,96021.31
2022-12-28T03:17:13.529Z,96011.47
2022-12-28T03:20:05.341Z,96005.72
2022-12-28T03:22:55.548Z,96013.19
2022-12-28T03:25:43.639Z,96001.56
2022-12-28T03:28:34.141Z,95999.44
2022-12-28T03:31:13.184Z,95998.19
2022-12-28T03:34:06.890Z,95995.44
2022-12-28T03:36:59.707Z,95982.75
2022-12-28T03:39:43.386Z,95972.72
2022-12-28T03:42:32.530Z,95970.19
2022-12-28T03:45:13.306Z,95955.31
2022-12-28T03:47:47.734Z,95962.97
2022-12-28T03:50:19.986Z,95971.25
2022-12-28T03:52:54.798Z,95962.56
2022-12-28T03:55:28.292Z,95960.56
2022-12-28T03:57:58.942Z,95956.63
2022-12-28T04:00:32.229Z,95965.13
2022-12-28T04:03:02.952Z,95961.66
2022-12-28T04:05:33.107Z,95951.88
2022-12-28T04:08:06.043Z,95956.19
2022-12-28T04:10:37.240Z,95952.47
2022-12-28T04:13:07.235Z,95947.94
2022-12-28T04:15:57.637Z,95945.63
2022-12-28T04:18:27.994Z,95941.56
2022-12-28T04:20:58.378Z,95950.13
2022-12-28T04:23:31.378Z,95955.13
2022-12-28T04:26:23.221Z,95952.63
2022-12-28T04:29:00.778Z,95951.16
2022-12-28T04:31:34.541Z,95951.00
2022-12-28T04:34:12.496Z,95952.63
2022-12-28T04:36:47.269Z,95954.84
2022-12-28T04:39:23.591Z,95958.91
2022-12-28T04:41:56.045Z,95944.19
2022-12-28T04:44:25.989Z,95946.16
2022-12-28T04:46:56.508Z,95954.69
2022-12-28T04:49:27.741Z,95950.53
2022-12-28T04:51:57.849Z,95948.28
2022-12-28T04:54:30.283Z,95949.34
2022-12-28T04:57:02.420Z,95939.00
2022-12-28T04:59:32.229Z,95941.66
2022-12-28T05:02:02.278Z,95942.47
2022-12-28T05:04:32.182Z,95935.81
2022-12-28T05:07:02.156Z,95945.06
2022-12-28T05:09:35.699Z,95937.38
2022-12-28T05:12:05.741Z,95939.53
2022-12-28T05:14:37.280Z,95941.69
2022-12-28T05:17:07.474Z,95936.34
2022-12-28T05:19:37.597Z,95918.06
2022-12-28T05:22:11.829Z,95908.22
2022-12-28T05:24:45.275Z,95920.66
2022-12-28T05:27:15.357Z,95910.66
2022-12-28T05:29:45.223Z,95908.69
2022-12-28T05:32:15.337Z,95913.41
2022-12-28T05:34:45.522Z,95912.25
2022-12-28T05:37:21.675Z,95898.03
2022-12-28T05:39:56.730Z,95910.81
2022-12-28T05:42:27.139Z,95911.81
2022-12-28T05:44:57.183Z,95915.91
2022-12-28T05:47:29.365Z,95916.72
2022-12-28T05:50:00.230Z,95916.84
2022-12-28T05:52:32.727Z,95921.22
2022-12-28T05:55:05.220Z,95912.50
2022-12-28T05:57:35.144Z,95912.16
2022-12-28T06:00:05.758Z,95912.66
2022-12-28T06:02:42.065Z,95909.25
2022-12-28T06:05:12.679Z,95910.84
2022-12-28T06:07:43.643Z,95912.50
2022-12-28T06:10:17.401Z,95917.63
2022-12-28T06:12:47.478Z,95909.38
2022-12-28T06:15:17.400Z,95917.81
2022-12-28T06:17:47.477Z,95917.69
2022-12-28T06:20:17.680Z,95915.19
2022-12-28T06:22:48.028Z,95915.41
2022-12-28T06:25:20.649Z,95917.84
2022-12-28T06:27:50.651Z,95916.56
2022-12-28T06:30:23.213Z,95920.28
2022-12-28T06:32:53.067Z,95924.84
2022-12-28T06:35:24.643Z,95914.78
2022-12-28T06:37:54.537Z,95922.34
2022-12-28T06:40:39.482Z,95918.16
2022-12-28T06:43:17.516Z,95917.97
2022-12-28T06:45:57.388Z,95912.09
2022-12-28T06:48:27.239Z,95922.16
2022-12-28T06:50:58.834Z,95917.31
2022-12-28T06:53:31.724Z,95910.47
2022-12-28T06:56:06.576Z,95912.78
2022-12-28T06:58:38.164Z,95916.31
2022-12-28T07:01:13.574Z,95916.00
2022-12-28T07:03:43.824Z,95923.16
2022-12-28T07:06:15.842Z,95924.91
2022-12-28T07:08:46.189Z,95926.19
2022-12-28T07:11:21.404Z,95927.09
2022-12-28T07:13:52.424Z,95917.44
2022-12-28T07:16:25.230Z,95923.97
2022-12-28T07:18:55.150Z,95915.91
2022-12-28T07:21:27.373Z,95922.19
2022-12-28T07:23:58.492Z,95914.13
2022-12-28T07:26:33.662Z,95916.47
2022-12-28T07:29:05.536Z,95919.66
2022-12-28T07:31:44.092Z,95917.88
2022-12-28T07:34:16.147Z,95921.94
2022-12-28T07:36:49.463Z,95921.44
2022-12-28T07:39:19.351Z,95923.41
2022-12-28T07:41:56.464Z,95923.25
2022-12-28T07:44:29.595Z,95927.13
2022-12-28T07:47:00.920Z,95928.09
2022-12-28T07:49:30.815Z,95930.72
2022-12-28T07:52:00.919Z,95928.28
2022-12-28T07:54:30.771Z,95915.63
2022-12-28T07:57:06.970Z,95916.59
2022-12-28T07:59:39.434Z,95919.53
2022-12-28T08:02:10.614Z,95915.63
2022-12-28T08:04:41.077Z,95907.22
2022-12-28T08:07:11.254Z,95904.63
2022-12-28T08:09:41.077Z,95909.91
2022-12-28T08:12:13.655Z,95902.91
2022-12-28T08:14:43.855Z,95900.97
2022-12-28T08:17:17.486Z,95896.03
2022-12-28T08:19:52.628Z,95912.16
2022-12-28T08:22:22.876Z,95913.94
2022-12-28T08:24:53.201Z,95913.69
2022-12-28T08:27:25.727Z,95920.09
2022-12-28T08:29:55.563Z,95922.03
2022-12-28T08:32:25.474Z,95921.41
2022-12-28T08:34:55.344Z,95926.03
2022-12-28T08:37:25.408Z,95916.91
2022-12-28T08:39:55.220Z,95920.31
2022-12-28T08:42:28.278Z,95912.22
2022-12-28T08:44:58.163Z,95913.25
2022-12-28T08:47:28.555Z,95914.94
2022-12-28T08:49:59.176Z,95899.22
2022-12-28T08:52:29.313Z,95905.66
2022-12-28T08:54:59.548Z,95903.69
2022-12-28T08:57:32.168Z,95896.88
2022-12-28T09:00:02.181Z,95896.88
2022-12-28T09:02:32.096Z,95893.22
2022-12-28T09:05:02.343Z,95887.81
2022-12-28T09:07:32.305Z,95884.53
2022-12-28T09:10:04.664Z,95884.31
2022-12-28T09:12:38.563Z,95882.50
2022-12-28T09:15:09.778Z,95878.16
2022-12-28T09:17:39.998Z,95880.34
2022-12-28T09:20:11.028Z,95888.09
2022-12-28T09:22:40.870Z,95877.63
2022-12-28T09:25:13.626Z,95882.66
2022-12-28T09:27:46.516Z,95864.91
2022-12-28T09:30:17.848Z,95872.84
2022-12-28T09:33:07.668Z,95867.38
2022-12-28T09:35:37.479Z,95862.94
2022-12-28T09:38:07.517Z,95857.97
2022-12-28T09:40:39.273Z,95856.09
2022-12-28T09:43:14.950Z,95855.44
2022-12-28T09:45:49.119Z,95847.84
2022-12-28T09:48:26.918Z,95840.72
2022-12-28T09:50:57.920Z,95837.91
2022-12-28T09:53:33.522Z,95842.03
2022-12-28T09:56:08.630Z,95833.72
2022-12-28T09:58:48.192Z,95830.22
2022-12-28T10:01:21.938Z,95835.63
2022-12-28T10:03:52.451Z,95837.06
2022-12-28T10:06:27.921Z,95829.47
2022-12-28T10:09:01.477Z,95819.38
2022-12-28T10:11:36.296Z,95809.72
2022-12-28T10:14:21.904Z,95814.13
2022-12-28T10:16:51.779Z,95805.06
2022-12-28T10:19:26.064Z,95795.16
2022-12-28T10:22:03.014Z,95798.75
2022-12-28T10:24:33.834Z,95790.72
2022-12-28T10:27:07.965Z,95787.47
2022-12-28T10:29:41.009Z,95787.41
2022-12-28T10:32:12.808Z,95795.19
2022-12-28T10:34:58.746Z,95787.16
2022-12-28T10:37:33.050Z,95777.19
2022-12-28T10:40:06.958Z,95768.41
2022-12-28T10:42:43.045Z,95766.56
2022-12-28T10:45:25.619Z,95762.56
2022-12-28T10:47:58.512Z,95752.53
2022-12-28T10:50:44.992Z,95755.34
2022-12-28T10:53:30.686Z,95757.56
2022-12-28T10:56:10.259Z,95755.53
2022-12-28T10:58:40.238Z,95748.28
2022-12-28T11:01:21.328Z,95744.84
2022-12-28T11:04:06.552Z,95746.78
2022-12-28T11:06:38.537Z,95734.16
2022-12-28T11:09:18.904Z,95734.72
2022-12-28T11:11:52.397Z,95725.25
2022-12-28T11:14:33.376Z,95732.09
2022-12-28T11:17:21.073Z,95719.25
2022-12-28T11:19:55.058Z,95719.25
2022-12-28T11:22:35.229Z,95716.69
2022-12-28T11:25:08.808Z,95710.53
2022-12-28T11:27:39.448Z,95714.31
2022-12-28T11:30:18.115Z,95711.59
2022-12-28T11:32:59.422Z,95707.16
2022-12-28T11:35:33.061Z,95706.72
2022-12-28T11:38:06.118Z,95700.97
2022-12-28T11:40:55.789Z,95695.13
2022-12-28T11:43:43.576Z,95692.50
2022-12-28T11:46:42.283Z,95695.56
2022-12-28T11:49:34.969Z,95687.28
2022-12-28T11:52:46.266Z,95687.09
2022-12-28T11:55:57.427Z,95685.88
2022-12-28T11:59:09.637Z,95678.66
2022-12-28T12:02:00.994Z,95677.25
2022-12-28T12:04:49.775Z,95670.38
2022-12-28T12:07:31.208Z,95669.94
2022-12-28T12:10:31.927Z,95658.31
2022-12-28T12:13:02.748Z,95660.91
2022-12-28T12:15:45.752Z,95660.69
2022-12-28T12:18:23.982Z,95654.59
2022-12-28T12:21:07.663Z,95646.44
2022-12-28T12:23:48.991Z,95653.25
2022-12-28T12:26:28.308Z,95637.19
2022-12-28T12:29:05.118Z,95632.41
2022-12-28T12:31:44.190Z,95628.56
2022-12-28T12:34:24.993Z,95628.72
2022-12-28T12:37:29.132Z,95626.50
2022-12-28T12:40:31.712Z,95622.50
2022-12-28T12:43:25.812Z,95613.41
2022-12-28T12:46:14.798Z,95599.91
2022-12-28T12:49:10.634Z,95602.47
2022-12-28T12:51:53.835Z,95592.16
2022-12-28T12:54:46.632Z,95589.75
2022-12-28T12:57:26.762Z,95586.53
2022-12-28T13:00:14.995Z,95586.75
2022-12-28T13:03:09.591Z,95585.91
2022-12-28T13:05:45.305Z,95575.47
2022-12-28T13:08:25.901Z,95576.66
2022-12-28T13:10:59.131Z,95575.03
2022-12-28T13:13:35.676Z,95567.75
2022-12-28T13:16:12.177Z,95571.09
2022-12-28T13:18:45.087Z,95571.78
2022-12-28T13:21:22.339Z,95560.44
2022-12-28T13:23:54.625Z,95561.00
2022-12-28T13:26:30.922Z,95564.03
2022-12-28T13:29:03.824Z,95559.47
2022-12-28T13:31:42.350Z,95563.19
2022-12-28T13:34:21.627Z,95559.59
2022-12-28T13:36:54.422Z,95561.38
2022-12-28T13:39:26.288Z,95552.25
2022-12-28T13:42:05.248Z,95563.19
2022-12-28T13:44:46.135Z,95559.19
2022-12-28T13:47:28.287Z,95556.22
2022-12-28T13:50:04.177Z,95556.38
2022-12-28T13:52:42.177Z,95557.25
2022-12-28T13:55:19.767Z,95557.06
2022-12-28T13:58:00.106Z,95554.25
2022-12-28T14:00:33.422Z,95551.22
2022-12-28T14:03:06.851Z,95549.47
2022-12-28T14:05:36.918Z,95549.66
2022-12-28T14:08:09.837Z,95541.63
2022-12-28T14:10:40.997Z,95544.06
2022-12-28T14:13:14.595Z,95546.47
2022-12-28T14:15:46.048Z,95542.06
2022-12-28T14:18:18.602Z,95537.00
2022-12-28T14:20:49.877Z,95537.22
2022-12-28T14:23:24.229Z,95535.81
2022-12-28T14:25:59.684Z,95541.69
2022-12-28T14:28:40.978Z,95534.66
2022-12-28T14:31:16.212Z,95536.66
2022-12-28T14:33:55.687Z,95532.44
2022-12-28T14:36:31.423Z,95530.28
2022-12-28T14:39:06.629Z,95532.66
2022-12-28T14:41:42.543Z,95525.44
2022-12-28T14:44:24.661Z,95523.66
2022-12-28T14:46:56.020Z,95523.03
2022-12-28T14:49:42.682Z,95516.81
2022-12-28T14:52:44.824Z,95521.22
2022-12-28T14:55:33.445Z,95520.03
2022-12-28T14:58:08.901Z,95513.78
2022-12-28T15:00:41.455Z,95515.41
2022-12-28T15:03:19.572Z,95511.38
2022-12-28T15:05:52.810Z,95505.97
2022-12-28T15:08:23.107Z,95508.75
2022-12-28T15:10:55.711Z,95507.75
2022-12-28T15:13:30.196Z,95507.31
2022-12-28T15:16:04.808Z,95515.16
2022-12-28T15:18:34.868Z,95519.56
2022-12-28T15:21:07.311Z,95518.31
2022-12-28T15:23:37.932Z,95515.47
2022-12-28T15:26:11.447Z,95519.06
2022-12-28T15:28:45.053Z,95514.66
2022-12-28T15:31:20.529Z,95516.59
2022-12-28T15:33:52.105Z,95513.81
2022-12-28T15:36:24.949Z,95505.91
2022-12-28T15:38:54.901Z,95506.31
2022-12-28T15:41:38.781Z,95506.03
2022-12-28T15:44:09.204Z,95502.03
2022-12-28T15:46:45.493Z,95503.94
2022-12-28T15:49:17.616Z,95503.91
2022-12-28T15:51:51.869Z,95498.69
2022-12-28T15:54:22.990Z,95498.78
2022-12-28T15:56:59.158Z,95503.34
2022-12-28T15:59:29.646Z,95505.94
2022-12-28T16:02:02.550Z,95503.03
2022-12-28T16:04:33.036Z,95494.63
2022-12-28T16:07:03.636Z,95497.72
2022-12-28T16:09:36.611Z,95503.09
2022-12-28T16:12:07.312Z,95501.84
2022-12-28T16:14:37.227Z,95504.09
2022-12-28T16:17:09.786Z,95496.97
2022-12-28T16:19:39.652Z,95492.13
2022-12-28T16:22:10.192Z,95494.44
2022-12-28T16:24:40.412Z,95491.84
2022-12-28T16:27:12.462Z,95496.19
2022-12-28T16:29:42.706Z,95501.13
2022-12-28T16:32:15.980Z,95493.38
2022-12-28T16:34:48.763Z,95497.13
2022-12-28T16:37:21.054Z,95503.22
2022-12-28T16:39:54.225Z,95497.66
2022-12-28T16:42:24.078Z,95493.81
2022-12-28T16:44:54.304Z,95490.59
2022-12-28T16:47:27.372Z,95485.78
2022-12-28T16:49:58.674Z,95481.47
2022-12-28T16:52:28.919Z,95483.44
2022-12-28T16:54:59.511Z,95485.91
2022-12-28T16:57:30.423Z,95484.91
2022-12-28T17:00:00.277Z,95479.50
2022-12-28T17:02:36.665Z,95469.25
2022-12-28T17:05:07.616Z,95475.97
2022-12-28T17:07:44.595Z,95470.75
2022-12-28T17:10:16.449Z,95480.38
2022-12-28T17:12:48.025Z,95474.28
2022-12-28T17:15:19.208Z,95465.72
2022-12-28T17:17:52.069Z,95476.97
2022-12-28T17:20:22.403Z,95470.84
2022-12-28T17:22:54.002Z,95474.16
2022-12-28T17:25:24.096Z,95475.91
2022-12-28T17:27:54.394Z,95473.28
2022-12-28T17:30:25.492Z,95468.44
2022-12-28T17:33:00.876Z,95472.03
2022-12-28T17:35:32.908Z,95464.31
2022-12-28T17:38:03.062Z,95455.19
2022-12-28T17:40:33.015Z,95452.50
2022-12-28T17:43:02.848Z,95460.97
2022-12-28T17:45:35.261Z,95452.91
2022-12-28T17:48:08.421Z,95456.91
2022-12-28T17:50:38.291Z,95457.19
2022-12-28T17:53:08.218Z,95451.25
2022-12-28T17:55:39.539Z,95454.84
2022-12-28T17:58:09.845Z,95455.78
2022-12-28T18:00:42.119Z,95452.91
2022-12-28T18:03:15.172Z,95452.44
2022-12-28T18:05:45.179Z,95446.81
2022-12-28T18:08:15.396Z,95450.66
2022-12-28T18:10:46.696Z,95457.06
2022-12-28T18:13:18.567Z,95452.94
2022-12-28T18:15:50.640Z,95445.97
2022-12-28T18:18:23.287Z,95452.66
2022-12-28T18:21:01.516Z,95445.84
2022-12-28T18:23:32.596Z,95442.00
2022-12-28T18:26:07.491Z,95446.13
2022-12-28T18:28:38.238Z,95444.16
2022-12-28T18:31:11.451Z,95436.09
2022-12-28T18:33:44.149Z,95436.72
2022-12-28T18:36:18.003Z,95434.22
2022-12-28T18:38:50.178Z,95432.09
2022-12-28T18:41:25.497Z,95426.72
2022-12-28T18:43:57.353Z,95432.25
2022-12-28T18:46:27.287Z,95427.94
2022-12-28T18:49:00.574Z,95424.13
2022-12-28T18:51:30.730Z,95434.31
2022-12-28T18:54:02.033Z,95427.56
2022-12-28T18:56:33.651Z,95429.28
2022-12-28T18:59:03.924Z,95430.69
2022-12-28T19:04:31.484Z,95424.53
2022-12-28T19:07:01.661Z,95416.22
2022-12-28T19:09:31.571Z,95406.78
2022-12-28T19:12:01.848Z,95405.16
2022-12-28T19:14:32.013Z,95408.69
2022-12-28T19:17:02.201Z,95405.91
2022-12-28T19:19:34.603Z,95397.47
2022-12-28T19:22:05.722Z,95399.56
2022-12-28T19:24:37.774Z,95391.25
2022-12-28T19:27:08.175Z,95385.06
2022-12-28T19:29:38.119Z,95385.59
2022-12-28T19:32:08.615Z,95372.72
2022-12-28T19:34:41.821Z,95372.53
2022-12-28T19:37:12.326Z,95371.41
2022-12-28T19:39:42.439Z,95368.72
2022-12-28T19:42:12.292Z,95367.81
2022-12-28T19:44:42.413Z,95362.00
2022-12-28T19:47:12.910Z,95354.38
2022-12-28T19:49:45.489Z,95347.50
2022-12-28T19:52:15.915Z,95356.38
2022-12-28T19:54:47.918Z,95343.84
2022-12-28T19:57:17.757Z,95343.13
2022-12-28T19:59:47.787Z,95346.78
2022-12-28T20:02:18.377Z,95343.31
2022-12-28T20:04:51.099Z,95341.81
2022-12-28T20:07:21.167Z,95352.81
2022-12-28T20:09:52.177Z,95353.72
2022-12-28T20:12:23.971Z,95344.41
2022-12-28T20:14:54.004Z,95337.41
2022-12-28T20:17:23.982Z,95336.44
2022-12-28T20:19:56.722Z,95335.44
2022-12-28T20:22:27.179Z,95326.59
2022-12-28T20:24:57.408Z,95324.97
2022-12-28T20:27:30.605Z,95318.88
2022-12-28T20:30:00.751Z,95326.13
2022-12-28T20:32:31.082Z,95313.56
2022-12-28T20:35:03.987Z,95309.19
2022-12-28T20:37:36.676Z,95313.94
2022-12-28T20:40:07.713Z,95324.44
2022-12-28T20:42:50.336Z,95317.63
2022-12-28T20:45:21.091Z,95308.94
2022-12-28T20:47:51.380Z,95314.03
2022-12-28T20:50:24.701Z,95304.25
2022-12-28T20:52:57.443Z,95303.91
2022-12-28T20:55:27.685Z,95303.19
2022-12-28T20:57:58.159Z,95300.47
2022-12-28T21:00:28.162Z,95292.34
2022-12-28T21:02:58.275Z,95296.91
2022-12-28T21:05:31.398Z,95298.72
2022-12-28T21:08:01.538Z,95287.94
2022-12-28T21:10:33.567Z,95293.03
2022-12-28T21:13:03.819Z,95290.38
2022-12-28T21:15:34.262Z,95290.94
2022-12-28T21:18:04.472Z,95284.75
2022-12-28T21:20:39.252Z,95285.75
2022-12-28T21:23:09.559Z,95278.94
2022-12-28T21:25:39.967Z,95277.31
2022-12-28T21:28:12.312Z,95285.97
2022-12-28T21:30:42.700Z,95272.19
2022-12-28T21:33:13.874Z,95266.13
2022-12-28T21:35:46.503Z,95274.84
2022-12-28T21:38:16.707Z,95264.59
2022-12-28T21:40:47.524Z,95258.59
2022-12-28T21:43:18.556Z,95258.78
2022-12-28T21:46:02.265Z,95258.34
2022-12-28T21:48:34.377Z,95260.38
2022-12-28T21:51:31.459Z,95250.13
2022-12-28T21:54:03.505Z,95254.06
2022-12-28T21:56:35.694Z,95250.50
2022-12-28T21:59:06.419Z,95259.34
2022-12-28T22:01:49.629Z,95244.28
2022-12-28T22:04:34.546Z,95249.47
2022-12-28T22:07:08.970Z,95259.47
2022-12-28T22:09:52.181Z,95247.81
2022-12-28T22:12:41.728Z,95249.13
2022-12-28T22:15:26.596Z,95246.59
2022-12-28T22:17:59.222Z,95244.19
2022-12-28T22:20:31.803Z,95241.16
2022-12-28T22:23:05.741Z,95241.34
2022-12-28T22:25:38.534Z,95229.53
2022-12-28T22:28:09.828Z,95229.72
2022-12-28T22:30:40.155Z,95226.69
2022-12-28T22:33:10.477Z,95231.31
2022-12-28T22:35:40.364Z,95237.22
2022-12-28T22:38:13.689Z,95234.91
2022-12-28T22:40:47.794Z,95226.91
2022-12-28T22:43:18.256Z,95232.13
2022-12-28T22:45:48.407Z,95232.44
2022-12-28T22:48:19.457Z,95230.16
2022-12-28T22:50:49.615Z,95228.56
2022-12-28T22:53:23.979Z,95225.97
2022-12-28T22:56:01.464Z,95224.41
2022-12-28T22:58:32.810Z,95220.78
2022-12-28T23:01:07.818Z,95217.97
2022-12-28T23:03:52.165Z,95217.97
2022-12-28T23:06:23.533Z,95213.59
2022-12-28T23:08:56.904Z,95219.59
2022-12-28T23:11:40.518Z,95204.81
2022-12-28T23:14:26.980Z,95213.28
2022-12-28T23:16:57.981Z,95203.06
2022-12-28T23:19:40.444Z,95204.88
2022-12-28T23:22:27.199Z,95205.69
2022-12-28T23:25:13.214Z,95205.94
2022-12-28T23:27:47.274Z,95190.53
2022-12-28T23:30:20.122Z,95194.16
2022-12-28T23:32:52.153Z,95186.81
2022-12-28T23:35:24.509Z,95181.81
2022-12-28T23:37:55.651Z,95179.38
2022-12-28T23:40:29.035Z,95184.47
2022-12-28T23:42:59.068Z,95179.03
2022-12-28T23:45:29.946Z,95179.88
2022-12-28T23:47:59.796Z,95175.06
2022-12-28T23:50:32.451Z,95174.19
2022-12-28T23:53:06.254Z,95174.25
2022-12-28T23:55:40.687Z,95167.66
2022-12-28T23:58:11.679Z,95174.63
